createdAt,value
2019-04-20T00:00:57.804Z,99.90
2019-04-20T00:03:34.414Z,99.90
2019-04-20T00:05:57.506Z,99.90
2019-04-20T00:08:31.053Z,99.90
2019-04-20T00:11:07.344Z,99.90
2019-04-20T00:13:40.778Z,99.90
2019-04-20T00:15:59.995Z,99.90
2019-04-20T00:18:36.543Z,99.90
2019-04-20T00:21:20.540Z,99.90
2019-04-20T00:23:53.536Z,99.90
2019-04-20T00:26:59.616Z,99.90
2019-04-20T00:29:22.703Z,99.90
2019-04-20T00:31:47.785Z,99.90
2019-04-20T00:34:14.112Z,99.90
2019-04-20T00:36:36.959Z,99.90
2019-04-20T00:39:11.286Z,99.90
2019-04-20T00:41:44.154Z,99.90
2019-04-20T00:44:17.279Z,99.90
2019-04-20T00:46:55.616Z,99.90
2019-04-20T00:49:25.378Z,99.90
2019-04-20T00:52:13.133Z,99.90
2019-04-20T00:54:15.848Z,99.90
2019-04-20T00:56:45.497Z,99.90
2019-04-20T00:59:30.215Z,99.90
2019-04-20T01:02:03.613Z,99.90
2019-04-20T01:04:39.231Z,99.90
2019-04-20T01:07:16.407Z,99.90
2019-04-20T01:10:04.664Z,99.90
2019-04-20T01:12:36.811Z,99.90
2019-04-20T01:15:10.778Z,99.90
2019-04-20T01:17:41.422Z,99.90
2019-04-20T01:20:09.085Z,99.90
2019-04-20T01:22:44.598Z,99.90
2019-04-20T01:25:18.283Z,99.90
2019-04-20T01:28:01.955Z,99.90
2019-04-20T01:30:21.875Z,99.90
2019-04-20T01:33:03.516Z,99.90
2019-04-20T01:35:34.168Z,99.90
2019-04-20T01:38:07.394Z,99.90
2019-04-20T01:40:17.265Z,99.90
2019-04-20T01:42:46.868Z,99.90
2019-04-20T01:45:25.218Z,99.90
2019-04-20T01:47:51.467Z,99.90
2019-04-20T01:50:24.477Z,99.90
2019-04-20T01:53:01.578Z,99.90
2019-04-20T01:55:44.013Z,99.90
2019-04-20T01:58:31.398Z,99.90
2019-04-20T02:00:59.530Z,99.90
2019-04-20T02:03:43.908Z,99.90
2019-04-20T02:06:15.018Z,99.90
2019-04-20T02:08:42.154Z,99.90
2019-04-20T02:11:20.599Z,99.90
2019-04-20T02:13:49.862Z,99.90
2019-04-20T02:16:22.662Z,99.90
2019-04-20T02:19:06.591Z,99.90
2019-04-20T02:21:33.505Z,99.90
2019-04-20T02:23:53.331Z,99.90
2019-04-20T02:26:17.896Z,99.90
2019-04-20T02:29:13.475Z,99.90
2019-04-20T02:32:10.345Z,99.90
2019-04-20T02:34:37.793Z,99.90
2019-04-20T02:37:09.470Z,99.90
2019-04-20T02:39:37.588Z,99.90
2019-04-20T02:47:27.682Z,99.90
2019-04-20T02:49:52.467Z,99.90
2019-04-20T02:55:05.928Z,99.90
2019-04-20T02:57:33.987Z,99.90
2019-04-20T03:02:14.755Z,99.90
2019-04-20T03:04:41.623Z,99.90
2019-04-20T03:07:15.265Z,99.90
2019-04-20T03:09:54.233Z,99.90
2019-04-20T03:12:28.927Z,99.90
2019-04-20T03:14:50.168Z,99.90
2019-04-20T03:17:31.072Z,99.90
2019-04-20T03:19:51.227Z,99.90
2019-04-20T03:22:48.355Z,99.90
2019-04-20T03:25:05.138Z,99.90
2019-04-20T03:27:39.388Z,99.90
2019-04-20T03:35:39.117Z,99.90
2019-04-20T03:38:04.631Z,99.90
2019-04-20T03:40:30.006Z,99.90
2019-04-20T03:42:44.811Z,99.90
2019-04-20T03:45:18.394Z,99.90
2019-04-20T03:47:57.355Z,99.90
2019-04-20T03:50:40.897Z,99.90
2019-04-20T03:53:29.335Z,99.90
2019-04-20T03:56:28.089Z,99.90
2019-04-20T03:59:00.874Z,99.90
2019-04-20T04:02:10.444Z,99.90
2019-04-20T04:04:34.470Z,99.90
2019-04-20T04:06:49.075Z,99.90
2019-04-20T04:09:25.782Z,99.90
2019-04-20T04:12:01.213Z,99.90
2019-04-20T04:14:15.985Z,99.90
2019-04-20T04:16:51.281Z,99.90
2019-04-20T04:19:21.320Z,99.90
2019-04-20T04:22:04.062Z,99.90
2019-04-20T04:24:30.674Z,99.90
2019-04-20T04:27:04.622Z,99.90
2019-04-20T04:29:43.061Z,99.90
2019-04-20T04:32:46.430Z,99.90
2019-04-20T04:34:39.108Z,99.90
2019-04-20T04:37:15.204Z,99.90
2019-04-20T04:39:42.910Z,99.90
2019-04-20T04:42:22.631Z,99.90
2019-04-20T04:44:37.492Z,99.90
2019-04-20T04:47:02.732Z,99.90
2019-04-20T04:49:34.112Z,99.90
2019-04-20T04:52:05.662Z,99.90
2019-04-20T04:54:43.507Z,99.90
2019-04-20T04:57:01.357Z,99.90
2019-04-20T04:59:31.625Z,99.90
2019-04-20T05:02:02.163Z,99.90
2019-04-20T05:05:28.021Z,99.90
2019-04-20T05:07:51.811Z,99.90
2019-04-20T05:10:09.778Z,99.90
2019-04-20T05:12:40.456Z,99.90
2019-04-20T05:15:22.664Z,99.90
2019-04-20T05:18:02.125Z,99.90
2019-04-20T05:20:37.180Z,99.90
2019-04-20T05:23:22.033Z,99.90
2019-04-20T05:26:08.233Z,99.90
2019-04-20T05:28:30.892Z,99.90
2019-04-20T05:30:57.299Z,99.90
2019-04-20T05:33:28.153Z,99.90
2019-04-20T05:36:12.775Z,99.90
2019-04-20T05:41:11.713Z,99.90
2019-04-20T05:43:45.840Z,99.90
2019-04-20T05:46:25.299Z,99.90
2019-04-20T05:48:50.946Z,99.90
2019-04-20T05:51:28.424Z,99.90
2019-04-20T05:53:50.370Z,99.90
2019-04-20T05:56:28.973Z,99.90
2019-04-20T05:58:56.605Z,99.90
2019-04-20T06:01:28.936Z,99.90
2019-04-20T06:03:53.893Z,99.90
2019-04-20T06:06:29.202Z,99.90
2019-04-20T06:08:59.663Z,99.90
2019-04-20T06:11:26.706Z,99.90
2019-04-20T06:14:09.117Z,99.90
2019-04-20T06:17:11.390Z,99.90
2019-04-20T06:19:30.984Z,99.90
2019-04-20T06:22:31.177Z,99.90
2019-04-20T06:25:40.915Z,99.90
2019-04-20T06:27:56.923Z,99.90
2019-04-20T06:30:19.142Z,99.90
2019-04-20T06:33:52.092Z,99.90
2019-04-20T06:36:15.838Z,99.90
2019-04-20T06:41:13.052Z,99.90
2019-04-20T06:43:43.273Z,99.90
2019-04-20T06:46:09.917Z,99.90
2019-04-20T06:48:48.536Z,99.90
2019-04-20T06:51:18.719Z,99.90
2019-04-20T06:53:49.941Z,99.90
2019-04-20T06:56:31.158Z,99.90
2019-04-20T06:59:03.770Z,99.90
2019-04-20T07:01:38.643Z,99.90
2019-04-20T07:09:06.432Z,99.90
2019-04-20T07:11:37.402Z,99.90
2019-04-20T07:13:54.359Z,99.90
2019-04-20T07:16:54.401Z,99.90
2019-04-20T07:19:30.808Z,99.90
2019-04-20T07:22:25.352Z,99.90
2019-04-20T07:24:59.280Z,99.90
2019-04-20T07:27:19.652Z,99.90
2019-04-20T07:29:54.121Z,99.90
2019-04-20T07:32:16.388Z,99.90
2019-04-20T07:34:55.666Z,99.90
2019-04-20T07:40:13.496Z,99.90
2019-04-20T07:42:55.145Z,99.90
2019-04-20T07:45:18.217Z,99.90
2019-04-20T07:47:58.725Z,99.90
2019-04-20T07:50:08.693Z,99.90
2019-04-20T07:52:40.878Z,99.90
2019-04-20T07:55:33.289Z,99.90
2019-04-20T07:57:42.870Z,99.90
2019-04-20T08:00:21.363Z,99.90
2019-04-20T08:03:09.748Z,99.90
2019-04-20T08:05:39.268Z,99.90
2019-04-20T08:08:14.848Z,99.90
2019-04-20T08:10:39.499Z,99.90
2019-04-20T08:13:30.592Z,99.90
2019-04-20T08:18:27.950Z,97.20
2019-04-20T08:20:52.433Z,96.20
2019-04-20T08:23:23.202Z,95.60
2019-04-20T08:25:47.519Z,96.60
2019-04-20T08:28:16.771Z,98.70
2019-04-20T08:31:09.302Z,99.50
2019-04-20T08:33:55.282Z,99.90
2019-04-20T08:36:23.353Z,99.90
2019-04-20T08:39:13.895Z,99.90
2019-04-20T08:41:17.956Z,99.90
2019-04-20T08:44:21.641Z,99.80
2019-04-20T08:46:25.140Z,99.00
2019-04-20T08:48:55.890Z,96.50
2019-04-20T08:51:25.528Z,93.10
2019-04-20T08:54:00.018Z,84.40
2019-04-20T08:56:18.722Z,78.90
2019-04-20T08:58:39.159Z,79.70
2019-04-20T09:01:14.017Z,77.80
2019-04-20T09:03:49.633Z,89.70
2019-04-20T09:06:29.553Z,75.50
2019-04-20T09:08:50.820Z,75.80
2019-04-20T09:11:34.579Z,68.30
2019-04-20T09:13:50.131Z,59.00
2019-04-20T09:16:15.375Z,57.70
2019-04-20T09:18:52.437Z,55.40
2019-04-20T09:21:34.197Z,55.30
2019-04-20T09:24:16.160Z,56.60
2019-04-20T09:26:37.641Z,56.90
2019-04-20T09:29:12.634Z,57.60
2019-04-20T09:31:40.895Z,55.40
2019-04-20T09:34:33.784Z,55.20
2019-04-20T09:37:22.464Z,56.10
2019-04-20T09:39:52.959Z,58.70
2019-04-20T09:42:32.910Z,59.30
2019-04-20T09:45:06.565Z,56.80
2019-04-20T09:47:43.366Z,55.30
2019-04-20T09:50:22.310Z,56.70
2019-04-20T09:52:59.254Z,53.60
2019-04-20T09:55:22.079Z,53.40
2019-04-20T09:57:59.262Z,52.00
2019-04-20T10:00:33.321Z,53.00
2019-04-20T10:02:44.684Z,50.80
2019-04-20T10:05:15.670Z,53.40
2019-04-20T10:07:49.295Z,52.00
2019-04-20T10:10:27.913Z,57.40
2019-04-20T10:12:48.006Z,50.20
2019-04-20T10:15:19.929Z,49.90
2019-04-20T10:17:49.799Z,52.00
2019-04-20T10:20:24.431Z,48.10
2019-04-20T10:22:50.899Z,48.10
2019-04-20T10:25:20.605Z,48.50
2019-04-20T10:27:49.999Z,50.40
2019-04-20T10:30:20.738Z,49.80
2019-04-20T10:32:53.777Z,48.20
2019-04-20T10:35:21.388Z,49.70
2019-04-20T10:37:56.101Z,48.20
2019-04-20T10:40:40.568Z,48.40
2019-04-20T10:42:59.726Z,45.80
2019-04-20T10:45:28.765Z,48.30
2019-04-20T10:47:59.049Z,46.20
2019-04-20T10:50:29.288Z,48.30
2019-04-20T10:52:59.603Z,44.00
2019-04-20T10:55:29.378Z,48.80
2019-04-20T10:57:59.714Z,44.30
2019-04-20T11:00:44.042Z,44.80
2019-04-20T11:03:15.707Z,44.50
2019-04-20T11:05:46.791Z,44.10
2019-04-20T11:08:16.830Z,43.20
2019-04-20T11:10:57.905Z,44.00
2019-04-20T11:13:17.326Z,43.40
2019-04-20T11:15:46.631Z,41.60
2019-04-20T11:18:17.600Z,43.40
2019-04-20T11:20:47.122Z,42.70
2019-04-20T11:23:16.494Z,41.80
2019-04-20T11:25:46.413Z,45.50
2019-04-20T11:28:16.589Z,42.60
2019-04-20T11:30:46.190Z,42.50
2019-04-20T11:33:16.095Z,46.30
2019-04-20T11:35:46.914Z,43.70
2019-04-20T11:38:17.395Z,44.90
2019-04-20T11:40:50.909Z,44.10
2019-04-20T11:43:17.977Z,43.60
2019-04-20T11:45:48.787Z,42.80
2019-04-20T11:48:19.159Z,43.40
2019-04-20T11:50:49.561Z,42.90
2019-04-20T11:53:19.527Z,39.40
2019-04-20T11:55:48.895Z,40.90
2019-04-20T11:58:19.602Z,38.60
2019-04-20T12:01:00.710Z,38.20
2019-04-20T12:03:33.326Z,40.00
2019-04-20T12:06:01.164Z,39.90
2019-04-20T12:08:29.270Z,39.10
2019-04-20T12:11:03.099Z,38.40
2019-04-20T12:13:30.969Z,38.60
2019-04-20T12:16:01.553Z,39.60
2019-04-20T12:18:31.721Z,39.60
2019-04-20T12:21:01.151Z,39.00
2019-04-20T12:23:30.693Z,38.10
2019-04-20T12:26:00.183Z,37.40
2019-04-20T12:28:29.668Z,36.20
2019-04-20T12:31:04.154Z,35.60
2019-04-20T12:33:30.667Z,35.40
2019-04-20T12:36:00.440Z,37.40
2019-04-20T12:38:30.796Z,36.10
2019-04-20T12:41:03.108Z,37.80
2019-04-20T12:43:31.918Z,37.70
2019-04-20T12:46:02.220Z,35.60
2019-04-20T12:48:31.952Z,36.70
2019-04-20T12:51:01.603Z,35.80
2019-04-20T12:53:31.062Z,38.20
2019-04-20T12:56:00.393Z,37.30
2019-04-20T12:58:30.594Z,35.80
2019-04-20T13:01:00.586Z,36.30
2019-04-20T13:03:30.110Z,39.10
2019-04-20T13:05:59.919Z,37.30
2019-04-20T13:08:36.161Z,35.80
2019-04-20T13:11:13.038Z,35.90
2019-04-20T13:13:56.576Z,39.80
2019-04-20T13:16:32.390Z,37.30
2019-04-20T13:19:05.696Z,38.30
2019-04-20T13:21:35.640Z,37.00
2019-04-20T13:24:07.014Z,37.60
2019-04-20T13:26:37.270Z,40.20
2019-04-20T13:29:06.871Z,38.10
2019-04-20T13:31:36.334Z,37.10
2019-04-20T13:34:05.683Z,37.10
2019-04-20T13:36:35.054Z,38.30
2019-04-20T13:39:06.277Z,41.80
2019-04-20T13:41:35.827Z,38.60
2019-04-20T13:44:06.446Z,41.30
2019-04-20T13:46:36.841Z,44.90
2019-04-20T13:49:07.046Z,40.00
2019-04-20T13:51:36.947Z,40.90
2019-04-20T13:54:13.045Z,41.80
2019-04-20T13:56:37.763Z,42.20
2019-04-20T13:59:25.826Z,42.20
2019-04-20T14:02:13.034Z,42.00
2019-04-20T14:04:51.083Z,42.70
2019-04-20T14:07:21.889Z,47.40
2019-04-20T14:09:51.384Z,50.10
2019-04-20T14:12:26.380Z,52.20
2019-04-20T14:14:53.031Z,53.60
2019-04-20T14:17:23.450Z,49.70
2019-04-20T14:19:53.239Z,52.20
2019-04-20T14:22:23.004Z,51.70
2019-04-20T14:24:53.209Z,49.20
2019-04-20T14:27:23.009Z,52.20
2019-04-20T14:29:52.959Z,56.60
2019-04-20T14:32:22.947Z,51.40
2019-04-20T14:34:53.218Z,53.40
2019-04-20T14:37:22.712Z,58.30
2019-04-20T14:39:52.374Z,69.20
2019-04-20T14:42:30.433Z,57.40
2019-04-20T14:45:12.152Z,60.40
2019-04-20T14:47:41.612Z,68.30
2019-04-20T14:50:11.813Z,60.00
2019-04-20T14:52:41.810Z,65.70
2019-04-20T14:55:15.269Z,82.50
2019-04-20T14:57:43.540Z,86.30
2019-04-20T15:00:27.806Z,73.70
2019-04-20T15:02:59.948Z,79.10
2019-04-20T15:05:29.325Z,76.40
2019-04-20T15:08:00.636Z,78.60
2019-04-20T15:10:31.079Z,78.00
2019-04-20T15:13:04.292Z,84.60
2019-04-20T15:15:32.585Z,78.40
2019-04-20T15:18:09.440Z,87.60
2019-04-20T15:20:43.591Z,81.00
2019-04-20T15:23:19.468Z,90.40
2019-04-20T15:25:48.784Z,95.40
2019-04-20T15:28:18.665Z,90.80
2019-04-20T15:30:49.896Z,93.20
2019-04-20T15:33:20.956Z,97.50
2019-04-20T15:35:50.835Z,93.70
2019-04-20T15:38:20.908Z,96.30
2019-04-20T15:40:51.097Z,96.30
2019-04-20T15:43:24.264Z,98.90
2019-04-20T15:45:51.870Z,99.90
2019-04-20T15:48:21.981Z,98.60
2019-04-20T15:50:51.982Z,98.40
2019-04-20T15:53:21.786Z,98.90
2019-04-20T15:55:52.332Z,99.60
2019-04-20T15:58:22.730Z,99.90
2019-04-20T16:00:52.813Z,99.90
2019-04-20T16:03:37.352Z,99.90
2019-04-20T16:06:09.409Z,99.90
2019-04-20T16:08:40.180Z,99.90
2019-04-20T16:11:11.083Z,99.90
2019-04-20T16:13:45.854Z,99.90
2019-04-20T16:16:12.240Z,99.90
2019-04-20T16:18:43.219Z,99.90
2019-04-20T16:21:19.588Z,99.90
2019-04-20T16:24:08.925Z,99.90
2019-04-20T16:26:44.639Z,99.90
2019-04-20T16:29:15.485Z,99.90
2019-04-20T16:31:48.403Z,99.90
2019-04-20T16:34:19.138Z,99.90
2019-04-20T16:36:54.315Z,99.90
2019-04-20T16:39:24.698Z,99.90
2019-04-20T16:41:58.165Z,99.90
2019-04-20T16:44:33.424Z,99.90
2019-04-20T16:47:06.028Z,99.90
2019-04-20T16:49:37.249Z,99.90
2019-04-20T16:52:09.083Z,99.90
2019-04-20T16:54:39.685Z,99.90
2019-04-20T16:57:12.531Z,99.90
2019-04-20T16:59:56.448Z,99.90
2019-04-20T17:02:26.460Z,99.90
2019-04-20T17:04:56.580Z,99.90
2019-04-20T17:07:42.676Z,99.90
2019-04-20T17:10:13.833Z,99.90
2019-04-20T17:12:43.859Z,99.90
2019-04-20T17:15:14.191Z,99.90
2019-04-20T17:17:46.167Z,99.90
2019-04-20T17:20:15.764Z,99.90
2019-04-20T17:22:46.305Z,99.90
2019-04-20T17:25:16.336Z,99.90
2019-04-20T17:27:53.332Z,99.90
2019-04-20T17:30:47.835Z,99.90
2019-04-20T17:33:21.279Z,99.90
2019-04-20T17:36:00.056Z,99.90
2019-04-20T17:38:20.811Z,99.90
2019-04-20T17:41:02.980Z,99.90
2019-04-20T17:43:29.151Z,99.90
2019-04-20T17:46:02.810Z,99.90
2019-04-20T17:48:36.074Z,99.90
2019-04-20T17:51:17.841Z,99.90
2019-04-20T17:53:50.846Z,99.90
2019-04-20T17:56:15.476Z,99.90
2019-04-20T17:58:46.102Z,99.90
2019-04-20T18:01:49.862Z,99.90
2019-04-20T18:04:44.468Z,99.90
2019-04-20T18:06:53.806Z,99.90
2019-04-20T18:09:34.910Z,99.90
2019-04-20T18:11:47.222Z,99.90
2019-04-20T18:14:34.130Z,99.90
2019-04-20T18:17:07.686Z,99.90
2019-04-20T18:19:31.240Z,99.90
2019-04-20T18:22:01.851Z,99.90
2019-04-20T18:24:56.866Z,99.90
2019-04-20T18:27:23.941Z,99.90
2019-04-20T18:29:53.193Z,99.90
2019-04-20T18:32:38.471Z,99.90
2019-04-20T18:35:18.281Z,99.90
2019-04-20T18:37:53.215Z,99.90
2019-04-20T18:40:29.154Z,99.90
2019-04-20T18:42:55.925Z,99.90
2019-04-20T18:45:35.157Z,99.90
2019-04-20T18:48:14.574Z,99.90
2019-04-20T18:50:30.543Z,99.90
2019-04-20T18:52:55.806Z,99.90
2019-04-20T18:55:33.836Z,99.90
2019-04-20T18:57:57.303Z,99.90
2019-04-20T19:00:32.466Z,99.90
2019-04-20T19:03:11.133Z,99.90
2019-04-20T19:05:29.620Z,99.90
2019-04-20T19:08:04.424Z,99.90
2019-04-20T19:10:34.851Z,99.90
2019-04-20T19:13:08.012Z,99.90
2019-04-20T19:16:13.375Z,99.90
2019-04-20T19:19:01.727Z,99.90
2019-04-20T19:21:17.312Z,99.90
2019-04-20T19:23:56.155Z,99.90
2019-04-20T19:26:21.257Z,99.90
2019-04-20T19:28:54.015Z,99.90
2019-04-20T19:31:41.375Z,99.90
2019-04-20T19:34:12.975Z,99.90
2019-04-20T19:36:31.969Z,99.90
2019-04-20T19:39:10.793Z,99.90
2019-04-20T19:41:36.224Z,99.90
2019-04-20T19:44:10.278Z,99.90
2019-04-20T19:49:10.108Z,99.90
2019-04-20T19:51:55.160Z,99.90
2019-04-20T19:54:24.204Z,99.90
2019-04-20T19:56:46.709Z,99.90
2019-04-20T19:59:13.673Z,99.90
2019-04-20T20:01:33.763Z,99.90
2019-04-20T20:04:06.408Z,99.90
2019-04-20T20:06:43.703Z,99.90
2019-04-20T20:09:10.995Z,99.90
2019-04-20T20:11:42.344Z,99.90
2019-04-20T20:14:12.643Z,99.90
2019-04-20T20:16:59.826Z,99.90
2019-04-20T20:19:28.110Z,99.90
2019-04-20T20:22:00.278Z,99.90
2019-04-20T20:24:15.840Z,99.90
2019-04-20T20:26:52.553Z,99.90
2019-04-20T20:29:26.222Z,99.90
2019-04-20T20:32:01.978Z,99.90
2019-04-20T20:34:26.450Z,99.90
2019-04-20T20:36:54.572Z,99.90
2019-04-20T20:39:27.650Z,99.90
2019-04-20T20:42:01.572Z,99.90
2019-04-20T20:44:34.044Z,99.90
2019-04-20T20:47:07.138Z,99.90
2019-04-20T20:49:47.041Z,99.90
2019-04-20T20:52:17.356Z,99.90
2019-04-20T20:54:41.361Z,99.90
2019-04-20T20:57:05.647Z,99.90
2019-04-20T20:59:40.301Z,99.90
2019-04-20T21:02:08.029Z,99.90
2019-04-20T21:04:31.412Z,99.90
2019-04-20T21:07:00.856Z,99.90
2019-04-20T21:09:31.317Z,99.90
2019-04-20T21:12:07.027Z,99.90
2019-04-20T21:14:35.355Z,99.90
2019-04-20T21:17:12.365Z,99.90
2019-04-20T21:19:55.003Z,99.90
2019-04-20T21:22:14.569Z,99.90
2019-04-20T21:24:39.888Z,99.90
2019-04-20T21:27:14.616Z,99.90
2019-04-20T21:29:46.727Z,99.90
2019-04-20T21:32:14.733Z,99.90
2019-04-20T21:34:50.394Z,99.90
2019-04-20T21:37:18.948Z,99.90
2019-04-20T21:39:51.855Z,99.90
2019-04-20T21:42:21.016Z,99.90
2019-04-20T21:44:50.376Z,99.90
2019-04-20T21:47:23.797Z,99.90
2019-04-20T21:49:57.962Z,99.90
2019-04-20T21:52:26.708Z,99.90
2019-04-20T21:54:52.097Z,99.90
2019-04-20T21:57:22.135Z,99.90
2019-04-20T21:59:55.354Z,99.90
2019-04-20T22:02:28.180Z,99.90
2019-04-20T22:04:55.520Z,99.90
2019-04-20T22:07:26.285Z,99.90
2019-04-20T22:09:57.149Z,99.90
2019-04-20T22:12:37.695Z,99.90
2019-04-20T22:15:07.979Z,99.90
2019-04-20T22:17:35.885Z,99.90
2019-04-20T22:20:17.733Z,99.90
2019-04-20T22:22:51.992Z,99.90
2019-04-20T22:25:28.256Z,99.90
2019-04-20T22:27:40.446Z,99.90
2019-04-20T22:30:10.363Z,99.90
2019-04-20T22:32:44.230Z,99.90
2019-04-20T22:35:15.398Z,99.90
2019-04-20T22:37:52.052Z,99.90
2019-04-20T22:40:28.027Z,99.90
2019-04-20T22:42:57.557Z,99.90
2019-04-20T22:45:25.641Z,99.90
2019-04-20T22:48:02.310Z,99.90
2019-04-20T22:50:43.563Z,99.90
2019-04-20T22:53:16.558Z,99.90
2019-04-20T22:55:50.142Z,99.90
2019-04-20T22:58:14.206Z,99.90
2019-04-20T23:00:40.712Z,99.90
2019-04-20T23:03:01.096Z,99.90
2019-04-20T23:05:30.962Z,99.90
2019-04-20T23:08:00.502Z,99.90
2019-04-20T23:10:36.887Z,99.90
2019-04-20T23:13:01.359Z,99.90
2019-04-20T23:15:32.043Z,99.90
2019-04-20T23:18:02.221Z,99.90
2019-04-20T23:20:35.444Z,99.90
2019-04-20T23:23:03.058Z,99.90
2019-04-20T23:25:33.409Z,99.90
2019-04-20T23:28:07.684Z,99.90
2019-04-20T23:30:37.768Z,99.90
2019-04-20T23:33:04.933Z,99.90
2019-04-20T23:35:37.606Z,99.90
2019-04-20T23:38:10.989Z,99.90
2019-04-20T23:40:37.434Z,99.90
2019-04-20T23:43:20.233Z,99.90
2019-04-20T23:46:14.662Z,99.90
2019-04-20T23:48:48.069Z,99.90
2019-04-20T23:51:40.642Z,99.90
2019-04-20T23:53:58.607Z,99.90
2019-04-20T23:56:22.053Z,99.90
2019-04-20T23:58:54.047Z,99.90
